Time;durP1;ratioP1;P1;durP2;ratioP2;P2;SDS_P1;SDS_P2;PMS_P1;PMS_P2;Temp;Humidity;BMP_temperature;BMP_pressure;BME280_temperature;BME280_humidity;BME280_pressure;Samples;Min_cycle;Max_cycle;Signal;HPM_P1;HPM_P2
2021/04/08 00:02:13;;;;;;;18.20;11.90;;;1.40;1.00;;;;;;5013872;28;20460;-50
2021/04/08 00:04:40;;;;;;;18.00;11.97;;;1.40;1.00;;;;;;5004098;28;20477;-56
2021/04/08 00:07:07;;;;;;;26.37;14.00;;;1.50;14.20;;;;;;5020085;28;20558;-49
2021/04/08 00:09:33;;;;;;;17.93;12.37;;;1.40;54.10;;;;;;5019599;28;20471;-50
2021/04/08 00:12:00;;;;;;;20.00;13.80;;;1.40;96.80;;;;;;5020654;28;20472;-50
2021/04/08 00:14:28;;;;;;;20.87;12.77;;;1.50;99.90;;;;;;5019874;28;20468;-49
2021/04/08 00:16:54;;;;;;;19.43;13.10;;;1.40;99.90;;;;;;5021185;28;20471;-47
2021/04/08 00:19:25;;;;;;;23.40;14.73;;;1.40;99.90;;;;;;5020752;28;20482;-52
2021/04/08 00:21:52;;;;;;;28.90;16.40;;;1.40;99.90;;;;;;5017689;28;20888;-54
2021/04/08 00:24:19;;;;;;;24.33;15.93;;;1.40;99.90;;;;;;5020626;28;20470;-51
2021/04/08 00:26:45;;;;;;;21.00;15.23;;;1.40;99.90;;;;;;5020273;28;20464;-46
2021/04/08 00:29:15;;;;;;;28.27;16.40;;;1.30;99.90;;;;;;5020888;28;20459;-53
2021/04/08 00:31:41;;;;;;;25.03;15.30;;;1.40;99.90;;;;;;5020615;28;20464;-52
2021/04/08 00:34:08;;;;;;;27.50;15.80;;;1.40;99.90;;;;;;5020587;28;20446;-46
2021/04/08 00:36:39;;;;;;;31.80;16.40;;;1.40;99.90;;;;;;5020201;28;20482;-53
2021/04/08 00:39:06;;;;;;;25.53;16.53;;;1.30;99.90;;;;;;5020509;28;20804;-50
2021/04/08 00:41:34;;;;;;;22.20;14.77;;;1.40;99.90;;;;;;5019867;28;20462;-53
2021/04/08 00:44:01;;;;;;;22.10;14.87;;;1.40;99.90;;;;;;5020199;28;20488;-50
2021/04/08 00:46:31;;;;;;;24.87;14.50;;;1.40;99.90;;;;;;5019861;28;20464;-49
2021/04/08 00:48:57;;;;;;;22.40;16.97;;;1.40;99.90;;;;;;5016912;28;20547;-55
2021/04/08 00:51:24;;;;;;;23.93;16.10;;;1.40;99.90;;;;;;5011560;28;20450;-53
2021/04/08 00:53:52;;;;;;;21.73;15.77;;;1.40;99.90;;;;;;5004140;28;20806;-52
2021/04/08 00:56:19;;;;;;;25.93;15.33;;;1.40;99.90;;;;;;5016593;28;20475;-54
2021/04/08 00:58:46;;;;;;;20.93;14.60;;;1.40;99.90;;;;;;5020294;28;20559;-48
2021/04/08 01:01:13;;;;;;;22.33;13.67;;;1.40;99.90;;;;;;5019385;28;20468;-47
2021/04/08 01:03:43;;;;;;;27.87;14.53;;;1.40;83.10;;;;;;5019613;28;20526;-46
2021/04/08 01:06:10;;;;;;;15.27;11.13;;;1.30;23.40;;;;;;5015210;28;20804;-48
2021/04/08 01:08:38;;;;;;;16.47;11.90;;;1.20;1.00;;;;;;5011365;28;20461;-55
2021/04/08 01:11:06;;;;;;;12.63;9.17;;;1.20;1.00;;;;;;5007378;28;20461;-47
2021/04/08 01:13:38;;;;;;;13.93;10.23;;;1.20;15.80;;;;;;5014172;28;20457;-53
2021/04/08 01:16:09;;;;;;;13.07;8.80;;;1.20;99.90;;;;;;5018442;28;20520;-51
2021/04/08 01:18:54;;;;;;;13.47;9.80;;;1.30;99.90;;;;;;5018473;28;20867;-55
2021/04/08 01:21:36;;;;;;;10.87;8.13;;;1.20;99.90;;;;;;5013665;28;20551;-50
2021/04/08 01:24:49;;;;;;;13.67;9.10;;;1.20;99.90;;;;;;5005012;28;20479;-48
2021/04/08 01:27:50;;;;;;;13.90;8.40;;;1.20;99.90;;;;;;5002620;28;20465;-50
2021/04/08 01:30:22;;;;;;;9.80;8.33;;;1.10;99.90;;;;;;5015676;28;20455;-49
2021/04/08 01:32:53;;;;;;;13.57;8.77;;;1.20;99.90;;;;;;5003000;28;20452;-46
2021/04/08 01:35:28;;;;;;;21.23;9.90;;;1.20;99.90;;;;;;5019855;28;20465;-52
2021/04/08 01:38:01;;;;;;;20.33;10.33;;;1.10;99.90;;;;;;5013536;28;20489;-52
2021/04/08 01:40:29;;;;;;;15.53;9.13;;;1.10;99.90;;;;;;5000108;28;20762;-52
2021/04/08 01:42:57;;;;;;;13.70;9.40;;;1.10;99.90;;;;;;4999672;28;20493;-50
2021/04/08 01:45:24;;;;;;;11.03;7.00;;;1.10;99.90;;;;;;5005325;28;20884;-52
2021/04/08 01:47:54;;;;;;;13.20;8.07;;;1.20;99.90;;;;;;5019168;28;20810;-50
2021/04/08 01:50:23;;;;;;;10.43;7.43;;;1.10;99.90;;;;;;5019227;28;20894;-50
2021/04/08 01:52:51;;;;;;;13.93;8.07;;;1.10;99.90;;;;;;5005419;28;20484;-53
2021/04/08 01:55:20;;;;;;;14.60;7.77;;;1.10;99.90;;;;;;5002134;28;20461;-52
2021/04/08 01:57:50;;;;;;;21.57;7.70;;;1.20;99.90;;;;;;5011771;28;20463;-54
2021/04/08 02:00:21;;;;;;;15.90;7.60;;;1.20;99.90;;;;;;5018266;28;20464;-50
2021/04/08 02:02:50;;;;;;;10.40;7.20;;;1.10;99.90;;;;;;5015577;28;20468;-52
2021/04/08 02:05:18;;;;;;;9.93;7.10;;;1.20;99.90;;;;;;5008590;28;20747;-46
2021/04/08 02:07:46;;;;;;;12.40;7.17;;;1.20;99.90;;;;;;5015734;28;20467;-48
2021/04/08 02:10:14;;;;;;;12.60;7.10;;;1.10;99.90;;;;;;5016206;28;20919;-48
2021/04/08 02:12:46;;;;;;;14.43;8.03;;;1.20;99.90;;;;;;5017683;28;20464;-46
2021/04/08 02:15:15;;;;;;;16.50;7.90;;;1.20;99.90;;;;;;5017769;28;20474;-52
2021/04/08 02:17:43;;;;;;;16.47;8.23;;;1.10;99.90;;;;;;4999448;28;20488;-52
2021/04/08 02:22:42;;;;;;;16.87;9.30;;;1.10;99.90;;;;;;4995675;28;20803;-49
2021/04/08 02:25:11;;;;;;;14.40;7.70;;;1.10;99.90;;;;;;4999234;28;20472;-48
2021/04/08 02:27:42;;;;;;;15.50;9.03;;;1.10;99.90;;;;;;4997518;28;20461;-52
2021/04/08 02:30:11;;;;;;;15.10;9.20;;;1.10;99.90;;;;;;4997843;28;20771;-53
2021/04/08 02:32:39;;;;;;;13.13;9.90;;;1.10;99.90;;;;;;4998175;28;20471;-48
2021/04/08 02:35:11;;;;;;;21.80;9.20;;;1.20;99.90;;;;;;4995615;28;20460;-49
2021/04/08 02:37:39;;;;;;;17.10;9.47;;;1.20;99.90;;;;;;4997311;28;20764;-49
2021/04/08 02:40:10;;;;;;;18.97;8.50;;;1.20;99.90;;;;;;4996805;28;20484;-47
2021/04/08 02:42:36;;;;;;;14.10;10.03;;;1.10;99.90;;;;;;4998740;28;20442;-51
2021/04/08 02:45:04;;;;;;;15.93;8.93;;;1.20;99.90;;;;;;4998989;28;20527;-50
2021/04/08 02:47:31;;;;;;;17.83;9.63;;;1.20;99.90;;;;;;4998539;28;20827;-49
2021/04/08 02:49:58;;;;;;;14.70;9.10;;;1.20;99.90;;;;;;4998554;28;20588;-49
2021/04/08 02:52:27;;;;;;;13.03;8.80;;;1.20;99.90;;;;;;4995960;28;20484;-48
2021/04/08 02:55:07;;;;;;;19.13;9.20;;;1.20;99.90;;;;;;4998126;28;20457;-48
2021/04/08 02:57:37;;;;;;;12.73;8.50;;;1.20;99.90;;;;;;4997908;28;20484;-53
2021/04/08 03:00:07;;;;;;;14.63;7.93;;;1.20;99.90;;;;;;4998134;28;20548;-52
2021/04/08 03:02:36;;;;;;;15.70;9.30;;;1.10;99.90;;;;;;4996647;28;20928;-49
2021/04/08 03:05:05;;;;;;;13.97;8.23;;;1.10;99.90;;;;;;4990719;28;20797;-50
2021/04/08 03:07:34;;;;;;;17.87;8.60;;;1.20;99.90;;;;;;4996525;28;20470;-55
2021/04/08 03:10:30;;;;;;;14.03;8.50;;;1.20;99.90;;;;;;4991581;28;20975;-53
2021/04/08 03:12:59;;;;;;;14.93;8.50;;;1.20;99.90;;;;;;4998271;28;20461;-52
2021/04/08 03:15:29;;;;;;;22.30;8.70;;;1.20;99.90;;;;;;4997475;28;20791;-56
2021/04/08 03:17:57;;;;;;;10.60;7.30;;;1.10;99.90;;;;;;4997780;28;20496;-51
2021/04/08 03:20:24;;;;;;;13.63;9.00;;;1.10;99.90;;;;;;4999735;28;20845;-50
2021/04/08 03:22:54;;;;;;;17.70;8.23;;;1.10;99.90;;;;;;5016193;28;20464;-53
2021/04/08 03:25:22;;;;;;;10.27;7.10;;;1.10;99.90;;;;;;5015434;28;20468;-55
2021/04/08 03:27:50;;;;;;;15.47;8.40;;;1.10;99.90;;;;;;5017227;28;20550;-55
2021/04/08 03:30:20;;;;;;;16.87;8.60;;;1.10;99.90;;;;;;5017087;28;20468;-51
2021/04/08 03:32:47;;;;;;;10.80;8.60;;;1.10;99.90;;;;;;5017139;28;20468;-55
2021/04/08 03:35:14;;;;;;;11.33;7.20;;;1.10;99.90;;;;;;5017250;28;21009;-56
2021/04/08 03:37:42;;;;;;;11.83;6.87;;;1.10;99.90;;;;;;5016540;28;20492;-55
2021/04/08 03:40:11;;;;;;;14.60;7.90;;;1.10;99.90;;;;;;5001398;28;20465;-56
2021/04/08 03:42:39;;;;;;;12.47;8.70;;;1.10;99.90;;;;;;5015328;28;20468;-54
2021/04/08 03:45:10;;;;;;;14.50;7.77;;;1.10;99.90;;;;;;5020684;28;20460;-55
2021/04/08 03:47:40;;;;;;;13.60;7.30;;;1.00;99.90;;;;;;5010826;28;20952;-53
2021/04/08 03:50:09;;;;;;;14.27;7.27;;;1.00;99.90;;;;;;5020922;28;20474;-56
2021/04/08 03:52:37;;;;;;;13.83;7.27;;;0.90;99.90;;;;;;5020354;28;20773;-56
2021/04/08 03:55:05;;;;;;;12.60;7.33;;;1.00;99.90;;;;;;5020379;28;20468;-57
2021/04/08 03:57:35;;;;;;;14.57;7.27;;;0.90;99.90;;;;;;5020626;28;20470;-56
2021/04/08 04:00:06;;;;;;;11.10;6.47;;;1.00;99.90;;;;;;5020573;28;20468;-55
2021/04/08 04:02:33;;;;;;;14.93;6.63;;;1.10;99.90;;;;;;5018313;28;20502;-56
2021/04/08 04:05:01;;;;;;;9.33;6.53;;;1.10;99.90;;;;;;5010216;28;20476;-54
2021/04/08 04:07:27;;;;;;;19.37;7.33;;;1.10;99.90;;;;;;5018798;28;20467;-53
2021/04/08 04:09:54;;;;;;;12.83;7.10;;;1.10;99.90;;;;;;5008505;28;20465;-56
2021/04/08 04:12:21;;;;;;;11.80;6.53;;;1.10;99.90;;;;;;5017572;28;20464;-51
2021/04/08 04:14:48;;;;;;;9.60;7.73;;;1.10;95.30;;;;;;5010833;28;20831;-57
2021/04/08 04:17:26;;;;;;;15.80;7.40;;;1.10;62.00;;;;;;5019827;28;20460;-49
2021/04/08 04:19:53;;;;;;;11.87;7.20;;;1.10;43.00;;;;;;5000945;28;20835;-51
2021/04/08 04:22:20;;;;;;;14.00;6.60;;;1.10;10.30;;;;;;5003198;28;20492;-56
2021/04/08 04:24:47;;;;;;;13.83;7.10;;;1.20;1.00;;;;;;5000609;28;20563;-56
2021/04/08 04:27:14;;;;;;;11.00;5.80;;;1.10;1.00;;;;;;5005127;28;20467;-51
2021/04/08 04:29:40;;;;;;;11.63;8.30;;;1.10;1.00;;;;;;5019914;28;20471;-55
2021/04/08 04:32:09;;;;;;;15.23;7.73;;;1.20;1.00;;;;;;5019949;28;20554;-51
2021/04/08 04:34:36;;;;;;;13.30;6.90;;;1.20;1.00;;;;;;5020918;28;20463;-48
2021/04/08 04:37:03;;;;;;;15.77;7.57;;;1.10;1.00;;;;;;5019713;28;20506;-53
2021/04/08 04:39:29;;;;;;;13.07;7.00;;;1.10;1.00;;;;;;5009643;28;20457;-50
2021/04/08 04:41:57;;;;;;;13.30;7.90;;;1.20;1.00;;;;;;5008762;28;20464;-49
2021/04/08 04:44:24;;;;;;;14.13;8.07;;;1.10;1.00;;;;;;5020391;28;20471;-54
2021/04/08 04:46:51;;;;;;;10.30;7.43;;;1.10;99.90;;;;;;5018927;28;20468;-56
2021/04/08 04:49:17;;;;;;;11.97;6.70;;;1.10;99.90;;;;;;5019889;28;20771;-54
2021/04/08 04:51:45;;;;;;;13.10;7.20;;;1.10;99.90;;;;;;5018866;28;20487;-55
2021/04/08 04:54:11;;;;;;;11.60;7.00;;;1.20;1.00;;;;;;5019629;28;20767;-53
2021/04/08 04:56:38;;;;;;;20.87;7.60;;;1.20;99.90;;;;;;5019219;28;20464;-55
2021/04/08 04:59:04;;;;;;;10.50;6.60;;;1.20;99.90;;;;;;5019539;28;20542;-54
2021/04/08 05:01:31;;;;;;;13.07;6.93;;;1.20;99.90;;;;;;5014708;28;20906;-55
2021/04/08 05:03:58;;;;;;;15.43;7.20;;;1.20;99.90;;;;;;5002350;28;20472;-53
2021/04/08 05:06:24;;;;;;;11.30;6.60;;;1.20;99.90;;;;;;5016364;28;20476;-57
2021/04/08 05:08:52;;;;;;;15.20;6.43;;;1.20;99.90;;;;;;5018985;28;20456;-56
2021/04/08 05:11:18;;;;;;;12.27;6.60;;;1.30;99.90;;;;;;5019387;28;20764;-57
2021/04/08 05:13:45;;;;;;;11.20;6.87;;;1.30;33.50;;;;;;5019160;28;20475;-57
2021/04/08 05:16:11;;;;;;;9.13;5.87;;;1.30;1.00;;;;;;5019302;28;21071;-55
2021/04/08 05:18:38;;;;;;;11.83;7.50;;;1.30;1.00;;;;;;5018901;28;20492;-53
2021/04/08 05:21:05;;;;;;;11.97;6.83;;;1.40;1.00;;;;;;5018600;28;20521;-56
2021/04/08 05:23:32;;;;;;;13.90;6.90;;;1.40;99.90;;;;;;5018812;28;20467;-56
2021/04/08 05:25:59;;;;;;;15.13;6.70;;;1.30;99.90;;;;;;5018623;28;20468;-56
2021/04/08 05:28:26;;;;;;;12.67;6.73;;;1.30;99.90;;;;;;5019298;28;20464;-56
2021/04/08 05:30:52;;;;;;;12.17;6.50;;;1.40;92.30;;;;;;5018871;28;20450;-56
2021/04/08 05:33:19;;;;;;;13.80;8.90;;;1.40;1.00;;;;;;5017972;28;20475;-57
2021/04/08 05:35:45;;;;;;;12.60;7.43;;;1.50;1.00;;;;;;5018679;28;20769;-57
2021/04/08 05:38:12;;;;;;;13.67;7.40;;;1.50;1.00;;;;;;5018240;28;20488;-56
2021/04/08 05:40:38;;;;;;;11.57;7.53;;;1.50;1.00;;;;;;5018643;28;20514;-54
2021/04/08 05:43:06;;;;;;;11.70;7.40;;;1.50;1.00;;;;;;5019410;28;20460;-58
2021/04/08 05:45:32;;;;;;;9.63;7.10;;;1.50;99.90;;;;;;5019013;28;20458;-57
2021/04/08 05:47:59;;;;;;;19.53;8.60;;;1.60;14.40;;;;;;5018802;28;20912;-57
2021/04/08 05:50:26;;;;;;;12.90;8.90;;;1.60;99.90;;;;;;5018254;28;20468;-56
2021/04/08 05:52:53;;;;;;;16.33;8.40;;;1.50;99.90;;;;;;5017801;28;20472;-51
2021/04/08 05:55:19;;;;;;;14.53;8.17;;;1.50;99.90;;;;;;5017971;28;20464;-57
2021/04/08 05:57:46;;;;;;;14.33;9.10;;;1.60;4.80;;;;;;5018290;28;20492;-54
2021/04/08 06:00:16;;;;;;;16.57;8.80;;;1.60;53.10;;;;;;5018786;28;20771;-55
2021/04/08 06:02:42;;;;;;;14.47;8.97;;;1.70;99.90;;;;;;5016499;28;20475;-54
2021/04/08 06:05:10;;;;;;;16.13;8.97;;;1.70;1.00;;;;;;5010397;28;20475;-57
2021/04/08 06:07:37;;;;;;;13.37;8.97;;;1.80;99.90;;;;;;5006899;28;20460;-54
2021/04/08 06:10:04;;;;;;;16.70;8.77;;;1.80;72.10;;;;;;5011902;28;20487;-57
2021/04/08 06:12:33;;;;;;;13.33;8.83;;;1.80;1.00;;;;;;5018168;28;20460;-54
2021/04/08 06:15:00;;;;;;;14.07;7.70;;;1.80;1.00;;;;;;4999757;28;20435;-56
2021/04/08 06:17:27;;;;;;;18.03;12.37;;;1.90;1.00;;;;;;4999229;28;20467;-55
2021/04/08 06:19:54;;;;;;;16.53;11.90;;;1.80;1.00;;;;;;4998817;28;20469;-53
2021/04/08 06:22:20;;;;;;;17.80;12.20;;;1.90;1.00;;;;;;5010837;28;20487;-53
2021/04/08 06:24:47;;;;;;;16.60;11.00;;;1.90;42.00;;;;;;5018151;28;20924;-50
2021/04/08 06:27:14;;;;;;;21.20;11.40;;;1.90;1.00;;;;;;5018004;28;20487;-54
2021/04/08 06:29:40;;;;;;;17.60;10.97;;;1.90;1.00;;;;;;5018007;28;20443;-53
2021/04/08 06:32:08;;;;;;;11.60;8.70;;;1.90;99.90;;;;;;5017424;28;20471;-54
2021/04/08 06:34:35;;;;;;;18.57;12.00;;;1.90;99.90;;;;;;5018051;28;20464;-54
2021/04/08 06:37:01;;;;;;;20.23;12.50;;;1.90;99.90;;;;;;5017250;28;20889;-54
2021/04/08 06:39:29;;;;;;;15.43;10.80;;;2.00;99.90;;;;;;5015894;28;20480;-55
2021/04/08 06:41:57;;;;;;;12.40;9.80;;;2.10;10.40;;;;;;5017378;28;20775;-53
2021/04/08 06:44:27;;;;;;;14.00;10.23;;;2.10;1.00;;;;;;5017883;28;20464;-54
2021/04/08 06:46:57;;;;;;;18.73;10.83;;;2.20;1.00;;;;;;5010538;28;20893;-53
2021/04/08 06:49:33;;;;;;;19.13;12.07;;;2.20;1.00;;;;;;5016734;28;20456;-53
2021/04/08 06:52:01;;;;;;;19.40;10.93;;;2.30;1.00;;;;;;5017774;28;20946;-56
2021/04/08 06:54:28;;;;;;;17.13;10.27;;;2.30;99.90;;;;;;5017443;28;20468;-52
2021/04/08 06:56:56;;;;;;;19.90;10.60;;;2.30;99.90;;;;;;5017528;28;20518;-50
2021/04/08 06:59:22;;;;;;;16.50;12.40;;;2.40;99.90;;;;;;5016649;28;20530;-54
2021/04/08 07:01:49;;;;;;;12.77;10.50;;;2.50;99.90;;;;;;5017301;28;20547;-55
2021/04/08 07:04:16;;;;;;;25.90;12.97;;;2.60;99.90;;;;;;5005891;28;20479;-49
2021/04/08 07:06:43;;;;;;;13.50;10.40;;;2.70;99.90;;;;;;5017189;28;20786;-54
2021/04/08 07:09:12;;;;;;;14.30;11.20;;;2.70;45.90;;;;;;5017236;28;20758;-53
2021/04/08 07:11:40;;;;;;;11.60;10.50;;;2.90;6.10;;;;;;5017652;28;20526;-48
2021/04/08 07:14:08;;;;;;;20.20;11.47;;;2.80;1.00;;;;;;5016913;28;20464;-56
2021/04/08 07:16:35;;;;;;;16.73;11.37;;;2.90;1.00;;;;;;5297890;22;20496;-54
2021/04/08 07:19:05;;;;;;;15.13;10.40;;;3.00;1.00;;;;;;5017401;28;20637;-57
2021/04/08 07:21:34;;;;;;;19.43;12.17;;;3.10;1.00;;;;;;5016841;28;20503;-55
2021/04/08 07:24:13;;;;;;;12.67;10.50;;;3.20;1.00;;;;;;5017301;28;20759;-57
2021/04/08 07:27:00;;;;;;;12.03;9.73;;;3.30;1.00;;;;;;5016978;28;20775;-58
2021/04/08 07:29:55;;;;;;;16.33;11.63;;;3.40;1.00;;;;;;5017003;28;20460;-56
2021/04/08 07:32:24;;;;;;;9.83;8.83;;;3.50;1.00;;;;;;4969267;28;20871;-58
2021/04/08 07:34:56;;;;;;;12.67;9.07;;;3.60;1.00;;;;;;5018853;28;20459;-58
2021/04/08 07:37:25;;;;;;;19.53;8.87;;;3.70;1.00;;;;;;5016701;28;20463;-58
2021/04/08 07:39:54;;;;;;;14.60;10.13;;;3.60;1.00;;;;;;5013714;28;20796;-58
2021/04/08 07:42:25;;;;;;;15.70;8.60;;;3.70;1.00;;;;;;5016562;28;20464;-58
2021/04/08 07:44:53;;;;;;;12.47;8.50;;;4.00;1.00;;;;;;5020877;28;20889;-58
2021/04/08 07:47:23;;;;;;;14.43;7.87;;;4.30;1.00;;;;;;5018778;28;20466;-58
2021/04/08 07:49:54;;;;;;;11.07;8.47;;;4.60;1.00;;;;;;5016197;28;20875;-58
2021/04/08 07:52:23;;;;;;;14.30;8.30;;;4.70;1.00;;;;;;5015423;28;20899;-59
2021/04/08 07:55:03;;;;;;;13.93;9.33;;;4.70;1.00;;;;;;5016160;28;20464;-58
2021/04/08 07:57:30;;;;;;;13.90;9.90;;;5.10;1.00;;;;;;5015402;28;20471;-59
2021/04/08 07:59:57;;;;;;;15.40;8.70;;;5.30;1.00;;;;;;5016701;28;20442;-60
2021/04/08 08:02:27;;;;;;;10.50;7.83;;;5.50;1.00;;;;;;5016797;28;20887;-60
2021/04/08 08:05:16;;;;;;;14.00;7.57;;;5.40;99.90;;;;;;5006505;28;20464;-60
2021/04/08 08:07:43;;;;;;;8.80;7.47;;;5.50;99.90;;;;;;5009937;28;20463;-60
2021/04/08 08:10:19;;;;;;;10.07;7.50;;;5.60;99.90;;;;;;5002026;28;20898;-60
2021/04/08 08:12:46;;;;;;;15.00;8.77;;;5.80;99.90;;;;;;5015930;28;20557;-60
2021/04/08 08:15:19;;;;;;;9.90;8.00;;;5.80;99.90;;;;;;5016219;28;20463;-60
2021/04/08 08:17:45;;;;;;;9.23;7.57;;;5.50;99.90;;;;;;5012571;28;20492;-59
2021/04/08 08:20:14;;;;;;;11.53;7.40;;;5.70;99.90;;;;;;5016552;28;20476;-60
2021/04/08 08:22:41;;;;;;;13.07;8.73;;;5.80;99.90;;;;;;5013998;28;20468;-59
2021/04/08 08:25:12;;;;;;;12.37;8.10;;;6.00;99.90;;;;;;5015976;28;20492;-60
2021/04/08 08:27:44;;;;;;;10.50;7.07;;;6.40;99.90;;;;;;5016724;28;20456;-60
2021/04/08 08:30:13;;;;;;;9.07;7.23;;;6.40;99.90;;;;;;5020289;28;20459;-60
2021/04/08 08:33:04;;;;;;;9.17;6.37;;;6.50;99.90;;;;;;5018785;28;20434;-60
2021/04/08 08:35:34;;;;;;;9.53;6.80;;;7.20;99.90;;;;;;5019159;28;20468;-60
2021/04/08 08:38:11;;;;;;;9.17;6.10;;;7.50;99.90;;;;;;5019076;28;20606;-60
2021/04/08 08:40:38;;;;;;;8.07;7.20;;;7.60;99.90;;;;;;5000634;28;20457;-61
2021/04/08 08:43:07;;;;;;;11.93;6.83;;;7.80;99.90;;;;;;5008068;28;20518;-60
2021/04/08 08:45:35;;;;;;;7.30;6.50;;;7.40;99.90;;;;;;5019013;28;20789;-60
2021/04/08 08:48:09;;;;;;;8.97;7.37;;;7.10;99.90;;;;;;5019489;28;20463;-60
2021/04/08 08:50:39;;;;;;;8.70;7.00;;;7.40;99.90;;;;;;5015529;28;20471;-60
2021/04/08 08:53:09;;;;;;;9.23;6.80;;;7.70;99.90;;;;;;5019153;28;20667;-60
2021/04/08 08:55:36;;;;;;;6.93;5.67;;;7.70;99.90;;;;;;5017739;28;20537;-60
2021/04/08 08:58:06;;;;;;;9.43;6.10;;;7.50;99.90;;;;;;5018210;28;20924;-60
2021/04/08 09:00:37;;;;;;;8.87;6.07;;;7.50;99.90;;;;;;5019601;28;20590;-59
2021/04/08 09:03:05;;;;;;;12.33;5.60;;;7.20;99.90;;;;;;5008349;28;20514;-59
2021/04/08 09:05:34;;;;;;;10.17;6.87;;;7.00;99.90;;;;;;5015752;28;20908;-59
2021/04/08 09:08:07;;;;;;;8.53;6.03;;;7.10;99.90;;;;;;5023002;28;20460;-58
2021/04/08 09:10:43;;;;;;;9.23;5.37;;;7.00;99.90;;;;;;5019143;28;20530;-58
2021/04/08 09:13:12;;;;;;;7.13;5.70;;;6.80;99.90;;;;;;5013862;28;20456;-58
2021/04/08 09:15:41;;;;;;;6.50;5.40;;;6.60;99.90;;;;;;5001719;28;20529;-57
2021/04/08 09:18:09;;;;;;;6.47;4.97;;;6.20;99.90;;;;;;5022037;28;20818;-58
2021/04/08 09:20:37;;;;;;;7.60;6.03;;;6.20;99.90;;;;;;5017711;28;20464;-58
2021/04/08 09:23:07;;;;;;;11.37;6.97;;;6.20;99.90;;;;;;5017970;28;20460;-59
2021/04/08 09:25:37;;;;;;;10.90;5.60;;;5.90;99.90;;;;;;5020571;28;20554;-59
2021/04/08 09:28:05;;;;;;;6.83;5.40;;;6.00;99.90;;;;;;5017582;28;20500;-59
2021/04/08 09:30:42;;;;;;;9.00;6.00;;;6.00;99.90;;;;;;5020571;28;20446;-59
2021/04/08 09:33:10;;;;;;;13.53;8.70;;;5.90;99.90;;;;;;5018179;28;20519;-59
2021/04/08 09:35:37;;;;;;;9.70;5.90;;;6.00;99.90;;;;;;5018089;28;20479;-59
2021/04/08 09:38:28;;;;;;;15.60;6.40;;;6.00;99.90;;;;;;5017986;28;20470;-59
2021/04/08 09:41:00;;;;;;;5.50;4.80;;;6.30;99.90;;;;;;5018748;28;20494;-59
2021/04/08 09:43:29;;;;;;;11.03;4.50;;;6.20;99.90;;;;;;5018975;28;20546;-59
2021/04/08 09:46:08;;;;;;;11.20;4.57;;;6.20;99.90;;;;;;5018480;28;20550;-59
2021/04/08 09:48:59;;;;;;;5.40;4.10;;;6.40;99.90;;;;;;5018510;28;20459;-60
2021/04/08 09:51:45;;;;;;;7.20;4.80;;;6.20;99.90;;;;;;4993235;28;21155;-59
2021/04/08 09:54:13;;;;;;;7.63;5.10;;;5.90;99.90;;;;;;5017551;28;20503;-59
2021/04/08 09:56:54;;;;;;;13.63;5.00;;;5.70;99.90;;;;;;5018797;28;20460;-59
2021/04/08 09:59:24;;;;;;;8.30;4.80;;;5.70;99.90;;;;;;5017465;28;20488;-59
2021/04/08 10:01:54;;;;;;;21.57;6.77;;;5.50;99.90;;;;;;5017499;28;20460;-59
2021/04/08 10:04:23;;;;;;;7.87;4.70;;;5.50;99.90;;;;;;5005233;28;20478;-59
2021/04/08 10:07:04;;;;;;;9.13;6.23;;;5.50;99.90;;;;;;5010573;28;20469;-60
2021/04/08 10:09:31;;;;;;;4.50;4.10;;;5.70;99.90;;;;;;5008926;28;20456;-59
2021/04/08 10:12:00;;;;;;;5.30;4.80;;;5.70;99.90;;;;;;5018775;28;20719;-60
2021/04/08 10:14:29;;;;;;;6.00;4.33;;;5.70;99.90;;;;;;5017683;28;20460;-59
2021/04/08 10:17:08;;;;;;;6.77;3.97;;;5.60;99.90;;;;;;5017823;28;20505;-59
2021/04/08 10:19:37;;;;;;;7.57;5.17;;;5.50;99.90;;;;;;5017445;28;20527;-60
2021/04/08 10:22:05;;;;;;;8.77;4.40;;;5.30;99.90;;;;;;5009309;28;20465;-60
2021/04/08 10:24:36;;;;;;;5.40;5.00;;;5.50;99.90;;;;;;5014447;28;20464;-60
2021/04/08 10:27:14;;;;;;;5.43;4.90;;;5.70;99.90;;;;;;5017552;28;20446;-60
2021/04/08 10:29:41;;;;;;;10.73;4.40;;;6.00;99.90;;;;;;5018219;28;20478;-60
2021/04/08 10:32:08;;;;;;;5.40;4.10;;;6.30;99.90;;;;;;5017698;28;20530;-60
2021/04/08 10:34:40;;;;;;;8.80;4.23;;;6.50;99.90;;;;;;5017118;28;20460;-60
2021/04/08 10:37:08;;;;;;;4.80;4.30;;;6.90;99.90;;;;;;5018137;28;20464;-61
2021/04/08 10:39:36;;;;;;;6.30;4.77;;;6.90;99.90;;;;;;5016063;28;20804;-60
2021/04/08 10:42:09;;;;;;;5.43;4.53;;;6.80;99.90;;;;;;5017889;28;20468;-61
2021/04/08 10:44:37;;;;;;;5.90;5.40;;;6.80;99.90;;;;;;5017805;28;20472;-61
2021/04/08 10:47:10;;;;;;;6.37;4.77;;;6.80;99.90;;;;;;5016811;28;20468;-61
2021/04/08 10:49:40;;;;;;;6.90;4.70;;;6.60;99.90;;;;;;5016217;28;20901;-61
2021/04/08 10:52:08;;;;;;;5.37;4.87;;;6.60;99.90;;;;;;5017264;28;20748;-61
2021/04/08 10:54:36;;;;;;;6.17;5.60;;;6.60;99.90;;;;;;5016822;28;20439;-62
2021/04/08 10:57:04;;;;;;;10.43;6.60;;;6.60;99.90;;;;;;5016176;28;20468;-61
2021/04/08 10:59:31;;;;;;;9.37;5.00;;;6.60;99.90;;;;;;5016685;28;20471;-61
2021/04/08 11:02:03;;;;;;;6.50;5.17;;;6.50;99.90;;;;;;5017265;28;20923;-62
2021/04/08 11:04:36;;;;;;;7.80;6.80;;;6.60;99.90;;;;;;5006749;28;20482;-62
2021/04/08 11:07:05;;;;;;;9.63;7.33;;;6.50;99.90;;;;;;5016655;28;20928;-62
2021/04/08 11:09:34;;;;;;;7.33;5.37;;;6.40;99.90;;;;;;5017053;28;20456;-62
2021/04/08 11:12:16;;;;;;;11.33;7.83;;;6.20;99.90;;;;;;5016771;28;20470;-62
2021/04/08 11:14:49;;;;;;;7.90;6.57;;;6.50;99.90;;;;;;5011972;28;20531;-62
2021/04/08 11:17:18;;;;;;;7.90;6.37;;;6.40;99.90;;;;;;5013614;28;20602;-63
2021/04/08 11:31:42;;;;;;;7.40;5.90;;;7.10;99.90;;;;;;4594428;28;20662;-61
2021/04/08 11:34:08;;;;;;;7.17;5.80;;;6.90;99.90;;;;;;5010312;28;20471;-62
2021/04/08 11:36:35;;;;;;;15.27;7.50;;;7.00;99.90;;;;;;5009984;28;20636;-61
2021/04/08 11:39:10;;;;;;;7.80;6.17;;;7.30;99.90;;;;;;5003167;28;20503;-61
2021/04/08 11:41:36;;;;;;;7.23;6.20;;;7.30;99.90;;;;;;5000844;28;20468;-60
2021/04/08 11:44:03;;;;;;;6.70;5.80;;;7.60;99.90;;;;;;5015607;28;20522;-59
2021/04/08 11:46:31;;;;;;;11.13;6.63;;;7.80;99.90;;;;;;5013524;28;20472;-58
2021/04/08 11:49:00;;;;;;;6.40;5.83;;;8.40;99.90;;;;;;4997194;28;20468;-59
2021/04/08 11:51:30;;;;;;;6.23;5.20;;;8.80;99.90;;;;;;4997753;28;20744;-55
2021/04/08 11:54:07;;;;;;;6.80;5.77;;;8.80;99.90;;;;;;4997357;28;20444;-58
2021/04/08 11:56:38;;;;;;;6.10;5.50;;;8.70;99.90;;;;;;5012377;28;20818;-58
2021/04/08 11:59:10;;;;;;;7.93;6.50;;;8.50;99.90;;;;;;5017067;28;20491;-58
2021/04/08 12:01:39;;;;;;;8.73;5.20;;;8.70;99.90;;;;;;5017707;28;20483;-54
2021/04/08 12:04:17;;;;;;;7.30;6.63;;;9.60;99.90;;;;;;5012606;28;20468;-56
2021/04/08 12:06:46;;;;;;;5.90;5.30;;;9.50;99.90;;;;;;5010947;28;20467;-51
2021/04/08 12:09:13;;;;;;;6.90;6.30;;;8.90;99.90;;;;;;5020007;28;20484;-53
2021/04/08 12:11:51;;;;;;;9.93;6.53;;;8.60;99.90;;;;;;5019791;28;20464;-53
2021/04/08 12:14:18;;;;;;;7.13;6.13;;;8.40;99.90;;;;;;5006626;28;20906;-52
2021/04/08 12:16:45;;;;;;;14.20;7.40;;;9.00;99.90;;;;;;5000931;28;20470;-50
2021/04/08 12:19:23;;;;;;;7.23;6.53;;;9.50;99.90;;;;;;5000789;28;20767;-51
2021/04/08 12:22:03;;;;;;;10.83;7.20;;;9.10;99.90;;;;;;5005179;28;20467;-51
2021/04/08 12:24:33;;;;;;;7.60;7.00;;;9.20;99.90;;;;;;5019192;28;20467;-49
2021/04/08 12:27:00;;;;;;;6.87;6.20;;;10.10;99.90;;;;;;5018627;28;20464;-46
2021/04/08 12:29:26;;;;;;;9.30;6.20;;;10.10;99.90;;;;;;5014515;28;20485;-48
2021/04/08 12:31:54;;;;;;;7.53;6.80;;;9.70;99.90;;;;;;5014128;28;20499;-49
2021/04/08 12:34:24;;;;;;;6.27;5.80;;;9.50;99.90;;;;;;5017202;28;20479;-46
2021/04/08 12:36:51;;;;;;;7.00;6.40;;;9.40;99.90;;;;;;4998717;28;20497;-47
2021/04/08 12:39:18;;;;;;;7.27;6.53;;;9.50;99.90;;;;;;5012531;28;20492;-44
2021/04/08 12:41:45;;;;;;;32.60;8.30;;;9.70;99.90;;;;;;5011320;28;20522;-44
2021/04/08 12:44:11;;;;;;;6.80;6.20;;;10.70;99.90;;;;;;5007158;28;20456;-44
2021/04/08 12:46:38;;;;;;;8.73;6.30;;;10.80;99.90;;;;;;5000192;28;20469;-45
2021/04/08 12:49:04;;;;;;;7.83;7.13;;;10.30;99.90;;;;;;5005368;28;20467;-46
2021/04/08 12:51:32;;;;;;;7.07;6.47;;;9.90;99.90;;;;;;5015497;28;20467;-51
2021/04/08 12:53:58;;;;;;;6.57;6.07;;;10.50;99.90;;;;;;5019834;28;20801;-45
2021/04/08 12:56:25;;;;;;;7.97;7.27;;;10.50;99.90;;;;;;5004024;28;20468;-45
2021/04/08 12:58:53;;;;;;;8.17;6.10;;;11.10;99.90;;;;;;5000062;28;20507;-48
2021/04/08 13:01:19;;;;;;;9.10;6.90;;;10.70;99.90;;;;;;5000044;28;20487;-46
2021/04/08 13:03:46;;;;;;;8.53;7.73;;;9.90;99.90;;;;;;5005389;28;20472;-46
2021/04/08 13:06:13;;;;;;;8.10;7.30;;;9.40;99.90;;;;;;5014633;28;20480;-46
2021/04/08 13:08:42;;;;;;;8.27;7.33;;;9.40;99.90;;;;;;5013959;28;20515;-45
2021/04/08 13:11:09;;;;;;;9.93;6.83;;;9.40;99.90;;;;;;5003289;28;20464;-45
2021/04/08 13:13:36;;;;;;;8.43;7.50;;;9.60;99.90;;;;;;5018322;28;20734;-51
2021/04/08 13:16:05;;;;;;;7.23;6.63;;;9.60;99.90;;;;;;5018923;28;20928;-46
2021/04/08 13:18:32;;;;;;;8.07;7.03;;;9.30;99.90;;;;;;5015041;28;20899;-44